sensor_id;sensor_type;location;lat;lon;timestamp;P1;durP1;ratioP1;P2;durP2;ratioP2
5555;SDS011;2801;50.972;7.856;2023-05-10T00:01:01;4.72;;;2.30;;
5555;SDS011;2801;50.972;7.856;2023-05-10T00:03:28;3.00;;;1.50;;
5555;SDS011;2801;50.972;7.856;2023-05-10T00:05:55;2.75;;;1.83;;
5555;SDS011;2801;50.972;7.856;2023-05-10T00:08:23;4.13;;;1.80;;
5555;SDS011;2801;50.972;7.856;2023-05-10T00:10:50;6.38;;;1.95;;
5555;SDS011;2801;50.972;7.856;2023-05-10T00:13:16;3.53;;;1.67;;
5555;SDS011;2801;50.972;7.856;2023-05-10T00:15:43;3.30;;;1.50;;
5555;SDS011;2801;50.972;7.856;2023-05-10T00:18:11;2.08;;;1.38;;
5555;SDS011;2801;50.972;7.856;2023-05-10T00:20:38;2.00;;;1.20;;
5555;SDS011;2801;50.972;7.856;2023-05-10T00:23:04;2.85;;;1.30;;
5555;SDS011;2801;50.972;7.856;2023-05-10T00:25:31;3.35;;;1.50;;
5555;SDS011;2801;50.972;7.856;2023-05-10T00:27:58;3.03;;;1.10;;
5555;SDS011;2801;50.972;7.856;2023-05-10T00:30:27;3.15;;;1.33;;
5555;SDS011;2801;50.972;7.856;2023-05-10T00:32:54;3.63;;;1.30;;
5555;SDS011;2801;50.972;7.856;2023-05-10T00:35:21;3.00;;;1.35;;
5555;SDS011;2801;50.972;7.856;2023-05-10T00:37:48;2.30;;;1.38;;
5555;SDS011;2801;50.972;7.856;2023-05-10T00:40:15;4.55;;;1.45;;
5555;SDS011;2801;50.972;7.856;2023-05-10T00:42:43;2.33;;;1.42;;
5555;SDS011;2801;50.972;7.856;2023-05-10T00:45:09;2.53;;;1.20;;
5555;SDS011;2801;50.972;7.856;2023-05-10T00:47:37;1.67;;;1.00;;
5555;SDS011;2801;50.972;7.856;2023-05-10T00:50:05;3.97;;;1.60;;
5555;SDS011;2801;50.972;7.856;2023-05-10T00:52:33;1.73;;;1.05;;
5555;SDS011;2801;50.972;7.856;2023-05-10T00:55:00;2.22;;;1.02;;
5555;SDS011;2801;50.972;7.856;2023-05-10T00:57:27;1.92;;;0.95;;
5555;SDS011;2801;50.972;7.856;2023-05-10T00:59:54;1.65;;;1.08;;
5555;SDS011;2801;50.972;7.856;2023-05-10T01:02:21;2.85;;;1.17;;
5555;SDS011;2801;50.972;7.856;2023-05-10T01:04:48;2.47;;;1.10;;
5555;SDS011;2801;50.972;7.856;2023-05-10T01:07:16;1.55;;;0.85;;
5555;SDS011;2801;50.972;7.856;2023-05-10T01:09:43;3.13;;;1.10;;
5555;SDS011;2801;50.972;7.856;2023-05-10T01:12:10;10.90;;;1.40;;
5555;SDS011;2801;50.972;7.856;2023-05-10T01:14:37;1.63;;;1.10;;
5555;SDS011;2801;50.972;7.856;2023-05-10T01:17:04;2.28;;;1.20;;
5555;SDS011;2801;50.972;7.856;2023-05-10T01:19:34;2.42;;;1.10;;
5555;SDS011;2801;50.972;7.856;2023-05-10T01:34:42;2.78;;;1.75;;
5555;SDS011;2801;50.972;7.856;2023-05-10T01:37:31;3.03;;;1.67;;
5555;SDS011;2801;50.972;7.856;2023-05-10T01:40:20;2.97;;;1.58;;
5555;SDS011;2801;50.972;7.856;2023-05-10T01:43:00;2.78;;;1.65;;
5555;SDS011;2801;50.972;7.856;2023-05-10T01:45:39;2.92;;;1.50;;
5555;SDS011;2801;50.972;7.856;2023-05-10T01:48:16;4.45;;;1.60;;
5555;SDS011;2801;50.972;7.856;2023-05-10T01:50:46;6.18;;;2.58;;
5555;SDS011;2801;50.972;7.856;2023-05-10T01:53:15;6.85;;;2.53;;
5555;SDS011;2801;50.972;7.856;2023-05-10T01:55:49;10.15;;;2.55;;
5555;SDS011;2801;50.972;7.856;2023-05-10T01:58:21;4.88;;;2.47;;
5555;SDS011;2801;50.972;7.856;2023-05-10T02:00:55;5.63;;;3.30;;
5555;SDS011;2801;50.972;7.856;2023-05-10T02:03:27;5.63;;;2.50;;
5555;SDS011;2801;50.972;7.856;2023-05-10T02:05:57;4.03;;;2.45;;
5555;SDS011;2801;50.972;7.856;2023-05-10T02:08:25;6.03;;;2.45;;
5555;SDS011;2801;50.972;7.856;2023-05-10T02:10:53;4.60;;;2.42;;
5555;SDS011;2801;50.972;7.856;2023-05-10T02:13:24;4.53;;;2.38;;
5555;SDS011;2801;50.972;7.856;2023-05-10T02:15:53;4.97;;;3.58;;
5555;SDS011;2801;50.972;7.856;2023-05-10T02:18:23;6.15;;;2.85;;
5555;SDS011;2801;50.972;7.856;2023-05-10T02:20:53;4.95;;;2.30;;
5555;SDS011;2801;50.972;7.856;2023-05-10T02:23:21;4.78;;;2.55;;
5555;SDS011;2801;50.972;7.856;2023-05-10T02:25:49;6.30;;;2.30;;
5555;SDS011;2801;50.972;7.856;2023-05-10T02:28:20;7.07;;;2.22;;
5555;SDS011;2801;50.972;7.856;2023-05-10T02:30:50;5.75;;;2.70;;
5555;SDS011;2801;50.972;7.856;2023-05-10T02:33:19;7.40;;;3.17;;
5555;SDS011;2801;50.972;7.856;2023-05-10T02:35:48;10.13;;;2.80;;
5555;SDS011;2801;50.972;7.856;2023-05-10T02:38:17;8.07;;;3.53;;
5555;SDS011;2801;50.972;7.856;2023-05-10T02:40:47;10.10;;;3.85;;
5555;SDS011;2801;50.972;7.856;2023-05-10T02:43:15;9.00;;;3.47;;
5555;SDS011;2801;50.972;7.856;2023-05-10T02:45:46;12.18;;;3.83;;
5555;SDS011;2801;50.972;7.856;2023-05-10T02:48:14;6.72;;;3.17;;
5555;SDS011;2801;50.972;7.856;2023-05-10T02:50:45;9.93;;;3.70;;
5555;SDS011;2801;50.972;7.856;2023-05-10T02:53:22;7.63;;;3.70;;
5555;SDS011;2801;50.972;7.856;2023-05-10T02:56:09;8.73;;;3.85;;
5555;SDS011;2801;50.972;7.856;2023-05-10T02:58:43;10.15;;;3.90;;
5555;SDS011;2801;50.972;7.856;2023-05-10T03:01:10;9.32;;;3.80;;
5555;SDS011;2801;50.972;7.856;2023-05-10T03:03:37;8.90;;;4.28;;
5555;SDS011;2801;50.972;7.856;2023-05-10T03:06:04;12.68;;;4.18;;
5555;SDS011;2801;50.972;7.856;2023-05-10T03:08:31;11.43;;;4.32;;
5555;SDS011;2801;50.972;7.856;2023-05-10T03:11:05;13.48;;;4.95;;
5555;SDS011;2801;50.972;7.856;2023-05-10T03:14:34;10.82;;;4.55;;
5555;SDS011;2801;50.972;7.856;2023-05-10T03:20:10;13.15;;;4.93;;
5555;SDS011;2801;50.972;7.856;2023-05-10T03:22:48;12.43;;;5.40;;
5555;SDS011;2801;50.972;7.856;2023-05-10T03:25:21;23.50;;;5.40;;
5555;SDS011;2801;50.972;7.856;2023-05-10T03:27:50;15.50;;;5.75;;
5555;SDS011;2801;50.972;7.856;2023-05-10T03:30:18;12.95;;;5.55;;
5555;SDS011;2801;50.972;7.856;2023-05-10T03:32:46;16.05;;;5.35;;
5555;SDS011;2801;50.972;7.856;2023-05-10T03:35:13;16.70;;;5.55;;
5555;SDS011;2801;50.972;7.856;2023-05-10T03:37:40;17.85;;;6.20;;
5555;SDS011;2801;50.972;7.856;2023-05-10T03:40:07;16.92;;;6.00;;
5555;SDS011;2801;50.972;7.856;2023-05-10T03:42:36;18.27;;;6.97;;
5555;SDS011;2801;50.972;7.856;2023-05-10T03:45:03;25.45;;;7.38;;
5555;SDS011;2801;50.972;7.856;2023-05-10T03:47:30;24.98;;;6.88;;
5555;SDS011;2801;50.972;7.856;2023-05-10T03:49:57;21.55;;;7.85;;
5555;SDS011;2801;50.972;7.856;2023-05-10T03:52:24;22.67;;;7.50;;
5555;SDS011;2801;50.972;7.856;2023-05-10T03:54:51;21.88;;;6.63;;
5555;SDS011;2801;50.972;7.856;2023-05-10T03:57:18;17.45;;;6.55;;
5555;SDS011;2801;50.972;7.856;2023-05-10T03:59:45;28.42;;;6.63;;
5555;SDS011;2801;50.972;7.856;2023-05-10T04:02:12;16.52;;;5.20;;
5555;SDS011;2801;50.972;7.856;2023-05-10T04:04:39;20.55;;;6.10;;
5555;SDS011;2801;50.972;7.856;2023-05-10T04:07:06;15.30;;;4.90;;
5555;SDS011;2801;50.972;7.856;2023-05-10T04:09:33;9.68;;;3.90;;
5555;SDS011;2801;50.972;7.856;2023-05-10T04:12:00;9.55;;;3.70;;
5555;SDS011;2801;50.972;7.856;2023-05-10T04:14:28;10.15;;;3.75;;
5555;SDS011;2801;50.972;7.856;2023-05-10T04:16:55;10.95;;;3.65;;
5555;SDS011;2801;50.972;7.856;2023-05-10T04:19:22;11.15;;;3.70;;
5555;SDS011;2801;50.972;7.856;2023-05-10T04:21:49;8.20;;;3.13;;
5555;SDS011;2801;50.972;7.856;2023-05-10T04:24:16;8.45;;;3.28;;
5555;SDS011;2801;50.972;7.856;2023-05-10T04:26:43;11.07;;;3.40;;
5555;SDS011;2801;50.972;7.856;2023-05-10T04:29:10;7.32;;;2.92;;
5555;SDS011;2801;50.972;7.856;2023-05-10T04:31:37;5.88;;;2.95;;
5555;SDS011;2801;50.972;7.856;2023-05-10T04:34:04;6.95;;;2.72;;
5555;SDS011;2801;50.972;7.856;2023-05-10T04:36:31;7.22;;;2.67;;
5555;SDS011;2801;50.972;7.856;2023-05-10T04:39:03;5.93;;;2.83;;
5555;SDS011;2801;50.972;7.856;2023-05-10T04:41:30;9.30;;;2.55;;
5555;SDS011;2801;50.972;7.856;2023-05-10T04:43:57;9.63;;;3.10;;
5555;SDS011;2801;50.972;7.856;2023-05-10T04:46:24;8.07;;;3.38;;
5555;SDS011;2801;50.972;7.856;2023-05-10T04:48:51;10.00;;;3.90;;
5555;SDS011;2801;50.972;7.856;2023-05-10T04:51:18;7.43;;;3.97;;
5555;SDS011;2801;50.972;7.856;2023-05-10T04:53:45;7.88;;;4.32;;
5555;SDS011;2801;50.972;7.856;2023-05-10T04:56:30;10.13;;;4.88;;
5555;SDS011;2801;50.972;7.856;2023-05-10T04:58:57;10.30;;;4.85;;
5555;SDS011;2801;50.972;7.856;2023-05-10T05:01:23;10.15;;;4.97;;
5555;SDS011;2801;50.972;7.856;2023-05-10T05:03:50;14.57;;;5.10;;
5555;SDS011;2801;50.972;7.856;2023-05-10T05:06:19;12.00;;;4.75;;
5555;SDS011;2801;50.972;7.856;2023-05-10T05:08:47;14.00;;;4.97;;
5555;SDS011;2801;50.972;7.856;2023-05-10T05:11:16;11.32;;;5.30;;
5555;SDS011;2801;50.972;7.856;2023-05-10T05:13:43;11.80;;;5.47;;
5555;SDS011;2801;50.972;7.856;2023-05-10T05:16:10;18.25;;;5.57;;
5555;SDS011;2801;50.972;7.856;2023-05-10T05:18:38;16.27;;;6.28;;
5555;SDS011;2801;50.972;7.856;2023-05-10T05:21:14;17.92;;;6.50;;
5555;SDS011;2801;50.972;7.856;2023-05-10T05:23:43;16.02;;;7.07;;
5555;SDS011;2801;50.972;7.856;2023-05-10T05:26:10;17.55;;;6.82;;
5555;SDS011;2801;50.972;7.856;2023-05-10T05:28:37;17.20;;;7.03;;
5555;SDS011;2801;50.972;7.856;2023-05-10T05:31:05;20.27;;;7.00;;
5555;SDS011;2801;50.972;7.856;2023-05-10T05:33:36;18.65;;;7.32;;
5555;SDS011;2801;50.972;7.856;2023-05-10T05:36:04;21.80;;;7.97;;
5555;SDS011;2801;50.972;7.856;2023-05-10T05:38:32;17.58;;;7.07;;
5555;SDS011;2801;50.972;7.856;2023-05-10T05:40:59;23.13;;;8.10;;
5555;SDS011;2801;50.972;7.856;2023-05-10T05:43:26;24.13;;;8.30;;
5555;SDS011;2801;50.972;7.856;2023-05-10T05:45:53;23.67;;;8.18;;
5555;SDS011;2801;50.972;7.856;2023-05-10T05:48:20;25.10;;;8.40;;
5555;SDS011;2801;50.972;7.856;2023-05-10T05:50:47;23.00;;;8.48;;
5555;SDS011;2801;50.972;7.856;2023-05-10T05:53:14;26.02;;;9.00;;
5555;SDS011;2801;50.972;7.856;2023-05-10T05:55:54;23.88;;;8.32;;
5555;SDS011;2801;50.972;7.856;2023-05-10T05:58:24;24.15;;;8.02;;
5555;SDS011;2801;50.972;7.856;2023-05-10T06:00:52;22.50;;;8.82;;
5555;SDS011;2801;50.972;7.856;2023-05-10T06:03:19;21.42;;;8.00;;
5555;SDS011;2801;50.972;7.856;2023-05-10T06:05:46;18.38;;;8.27;;
5555;SDS011;2801;50.972;7.856;2023-05-10T06:08:13;23.45;;;8.57;;
5555;SDS011;2801;50.972;7.856;2023-05-10T06:10:41;22.13;;;7.95;;
5555;SDS011;2801;50.972;7.856;2023-05-10T06:13:08;24.48;;;9.38;;
5555;SDS011;2801;50.972;7.856;2023-05-10T06:15:35;24.38;;;8.68;;
5555;SDS011;2801;50.972;7.856;2023-05-10T06:18:02;21.25;;;8.50;;
5555;SDS011;2801;50.972;7.856;2023-05-10T06:20:29;18.83;;;7.28;;
5555;SDS011;2801;50.972;7.856;2023-05-10T06:22:57;15.90;;;6.70;;
5555;SDS011;2801;50.972;7.856;2023-05-10T06:25:24;16.02;;;7.68;;
5555;SDS011;2801;50.972;7.856;2023-05-10T06:27:52;14.05;;;6.75;;
5555;SDS011;2801;50.972;7.856;2023-05-10T06:30:24;14.65;;;7.15;;
5555;SDS011;2801;50.972;7.856;2023-05-10T06:32:55;16.05;;;6.60;;
5555;SDS011;2801;50.972;7.856;2023-05-10T06:35:23;13.98;;;6.65;;
5555;SDS011;2801;50.972;7.856;2023-05-10T06:37:50;16.58;;;6.40;;
5555;SDS011;2801;50.972;7.856;2023-05-10T06:40:17;10.88;;;6.03;;
5555;SDS011;2801;50.972;7.856;2023-05-10T06:42:45;12.57;;;6.50;;
5555;SDS011;2801;50.972;7.856;2023-05-10T06:45:14;14.60;;;7.05;;
5555;SDS011;2801;50.972;7.856;2023-05-10T06:47:42;15.70;;;6.35;;
5555;SDS011;2801;50.972;7.856;2023-05-10T06:50:10;15.55;;;6.65;;
5555;SDS011;2801;50.972;7.856;2023-05-10T06:52:37;14.27;;;6.53;;
5555;SDS011;2801;50.972;7.856;2023-05-10T06:55:05;14.98;;;6.25;;
5555;SDS011;2801;50.972;7.856;2023-05-10T06:57:33;12.48;;;5.72;;
5555;SDS011;2801;50.972;7.856;2023-05-10T07:00:00;12.98;;;6.38;;
5555;SDS011;2801;50.972;7.856;2023-05-10T07:02:30;14.43;;;6.90;;
5555;SDS011;2801;50.972;7.856;2023-05-10T07:04:57;12.25;;;6.63;;
5555;SDS011;2801;50.972;7.856;2023-05-10T07:07:28;13.10;;;6.72;;
5555;SDS011;2801;50.972;7.856;2023-05-10T07:09:55;13.57;;;6.65;;
5555;SDS011;2801;50.972;7.856;2023-05-10T07:12:24;16.70;;;6.70;;
5555;SDS011;2801;50.972;7.856;2023-05-10T07:14:51;20.25;;;7.30;;
5555;SDS011;2801;50.972;7.856;2023-05-10T07:17:18;15.13;;;6.60;;
5555;SDS011;2801;50.972;7.856;2023-05-10T07:19:45;14.82;;;7.03;;
5555;SDS011;2801;50.972;7.856;2023-05-10T07:22:12;14.65;;;7.15;;
5555;SDS011;2801;50.972;7.856;2023-05-10T07:24:39;14.93;;;8.07;;
5555;SDS011;2801;50.972;7.856;2023-05-10T07:27:06;12.75;;;6.35;;
5555;SDS011;2801;50.972;7.856;2023-05-10T07:29:34;10.88;;;6.40;;
5555;SDS011;2801;50.972;7.856;2023-05-10T07:32:02;15.10;;;6.32;;
5555;SDS011;2801;50.972;7.856;2023-05-10T07:34:29;19.33;;;9.32;;
5555;SDS011;2801;50.972;7.856;2023-05-10T07:36:59;21.17;;;9.50;;
5555;SDS011;2801;50.972;7.856;2023-05-10T07:39:27;22.23;;;10.10;;
5555;SDS011;2801;50.972;7.856;2023-05-10T07:41:54;30.25;;;11.93;;
5555;SDS011;2801;50.972;7.856;2023-05-10T07:44:22;30.08;;;13.10;;
5555;SDS011;2801;50.972;7.856;2023-05-10T07:46:49;30.30;;;13.43;;
5555;SDS011;2801;50.972;7.856;2023-05-10T07:49:16;37.38;;;13.77;;
5555;SDS011;2801;50.972;7.856;2023-05-10T07:51:43;34.40;;;14.05;;
5555;SDS011;2801;50.972;7.856;2023-05-10T07:54:10;39.28;;;14.48;;
5555;SDS011;2801;50.972;7.856;2023-05-10T07:56:38;35.28;;;13.63;;
5555;SDS011;2801;50.972;7.856;2023-05-10T07:59:14;36.45;;;14.45;;
5555;SDS011;2801;50.972;7.856;2023-05-10T08:01:42;31.60;;;14.15;;
5555;SDS011;2801;50.972;7.856;2023-05-10T08:04:10;31.85;;;13.40;;
5555;SDS011;2801;50.972;7.856;2023-05-10T08:06:38;32.40;;;14.18;;
5555;SDS011;2801;50.972;7.856;2023-05-10T08:09:06;33.25;;;15.07;;
5555;SDS011;2801;50.972;7.856;2023-05-10T08:11:33;30.85;;;14.05;;
5555;SDS011;2801;50.972;7.856;2023-05-10T08:14:01;27.90;;;13.48;;
5555;SDS011;2801;50.972;7.856;2023-05-10T08:16:28;32.72;;;13.90;;
5555;SDS011;2801;50.972;7.856;2023-05-10T08:18:55;29.65;;;14.20;;
5555;SDS011;2801;50.972;7.856;2023-05-10T08:21:22;31.83;;;15.52;;
5555;SDS011;2801;50.972;7.856;2023-05-10T08:23:49;36.60;;;15.30;;
5555;SDS011;2801;50.972;7.856;2023-05-10T08:26:16;33.38;;;15.27;;
5555;SDS011;2801;50.972;7.856;2023-05-10T08:28:43;32.72;;;14.80;;
5555;SDS011;2801;50.972;7.856;2023-05-10T08:31:10;31.20;;;14.85;;
5555;SDS011;2801;50.972;7.856;2023-05-10T08:33:38;29.30;;;14.77;;
5555;SDS011;2801;50.972;7.856;2023-05-10T08:36:07;29.80;;;14.73;;
5555;SDS011;2801;50.972;7.856;2023-05-10T08:38:34;35.17;;;16.35;;
5555;SDS011;2801;50.972;7.856;2023-05-10T08:41:01;33.90;;;14.02;;
5555;SDS011;2801;50.972;7.856;2023-05-10T08:43:30;29.83;;;14.07;;
5555;SDS011;2801;50.972;7.856;2023-05-10T08:45:59;29.65;;;13.85;;
5555;SDS011;2801;50.972;7.856;2023-05-10T08:48:30;23.40;;;12.75;;
5555;SDS011;2801;50.972;7.856;2023-05-10T08:51:00;32.38;;;14.15;;
5555;SDS011;2801;50.972;7.856;2023-05-10T08:53:31;26.65;;;13.20;;
5555;SDS011;2801;50.972;7.856;2023-05-10T08:56:02;26.70;;;13.32;;
5555;SDS011;2801;50.972;7.856;2023-05-10T08:58:30;28.33;;;15.10;;
5555;SDS011;2801;50.972;7.856;2023-05-10T09:00:58;29.77;;;13.95;;
5555;SDS011;2801;50.972;7.856;2023-05-10T09:03:27;29.25;;;14.57;;
5555;SDS011;2801;50.972;7.856;2023-05-10T09:05:54;28.75;;;13.80;;
5555;SDS011;2801;50.972;7.856;2023-05-10T09:08:25;32.00;;;14.88;;
5555;SDS011;2801;50.972;7.856;2023-05-10T09:10:53;28.83;;;14.77;;
5555;SDS011;2801;50.972;7.856;2023-05-10T09:13:21;29.08;;;14.63;;
5555;SDS011;2801;50.972;7.856;2023-05-10T09:15:50;27.95;;;15.07;;
5555;SDS011;2801;50.972;7.856;2023-05-10T09:18:18;30.33;;;15.45;;
5555;SDS011;2801;50.972;7.856;2023-05-10T09:20:46;34.47;;;15.30;;
5555;SDS011;2801;50.972;7.856;2023-05-10T09:23:14;36.13;;;15.57;;
5555;SDS011;2801;50.972;7.856;2023-05-10T09:25:41;27.67;;;14.07;;
5555;SDS011;2801;50.972;7.856;2023-05-10T09:28:08;28.95;;;14.82;;
5555;SDS011;2801;50.972;7.856;2023-05-10T09:30:36;26.33;;;13.10;;
5555;SDS011;2801;50.972;7.856;2023-05-10T09:33:03;27.92;;;14.02;;
5555;SDS011;2801;50.972;7.856;2023-05-10T09:35:31;26.10;;;13.43;;
5555;SDS011;2801;50.972;7.856;2023-05-10T09:38:00;26.23;;;13.48;;
5555;SDS011;2801;50.972;7.856;2023-05-10T09:40:30;26.50;;;13.25;;
5555;SDS011;2801;50.972;7.856;2023-05-10T09:42:59;25.45;;;13.43;;
5555;SDS011;2801;50.972;7.856;2023-05-10T09:45:31;21.13;;;11.18;;
5555;SDS011;2801;50.972;7.856;2023-05-10T09:48:03;19.92;;;11.05;;
5555;SDS011;2801;50.972;7.856;2023-05-10T09:50:32;22.15;;;11.35;;
5555;SDS011;2801;50.972;7.856;2023-05-10T09:53:01;22.75;;;11.45;;
5555;SDS011;2801;50.972;7.856;2023-05-10T09:58:08;15.70;;;9.50;;
5555;SDS011;2801;50.972;7.856;2023-05-10T10:00:37;17.02;;;9.93;;
5555;SDS011;2801;50.972;7.856;2023-05-10T10:03:12;14.02;;;8.73;;
5555;SDS011;2801;50.972;7.856;2023-05-10T10:05:49;16.27;;;8.35;;
5555;SDS011;2801;50.972;7.856;2023-05-10T10:08:17;13.15;;;7.95;;
5555;SDS011;2801;50.972;7.856;2023-05-10T10:10:44;11.07;;;7.03;;
5555;SDS011;2801;50.972;7.856;2023-05-10T10:13:12;10.43;;;6.50;;
5555;SDS011;2801;50.972;7.856;2023-05-10T10:15:41;7.00;;;4.55;;
5555;SDS011;2801;50.972;7.856;2023-05-10T10:18:13;7.97;;;3.80;;
5555;SDS011;2801;50.972;7.856;2023-05-10T10:20:41;6.05;;;3.17;;
5555;SDS011;2801;50.972;7.856;2023-05-10T10:23:09;4.68;;;3.33;;
5555;SDS011;2801;50.972;7.856;2023-05-10T10:25:36;4.57;;;3.13;;
5555;SDS011;2801;50.972;7.856;2023-05-10T10:30:48;6.00;;;3.40;;
5555;SDS011;2801;50.972;7.856;2023-05-10T10:36:07;6.15;;;4.10;;
5555;SDS011;2801;50.972;7.856;2023-05-10T10:47:04;4.55;;;2.92;;
5555;SDS011;2801;50.972;7.856;2023-05-10T10:49:42;5.38;;;3.17;;
5555;SDS011;2801;50.972;7.856;2023-05-10T10:55:12;4.18;;;2.15;;
5555;SDS011;2801;50.972;7.856;2023-05-10T10:57:51;3.83;;;2.55;;
5555;SDS011;2801;50.972;7.856;2023-05-10T11:00:31;4.72;;;2.50;;
5555;SDS011;2801;50.972;7.856;2023-05-10T11:03:05;3.50;;;2.28;;
5555;SDS011;2801;50.972;7.856;2023-05-10T11:05:36;3.65;;;2.50;;
5555;SDS011;2801;50.972;7.856;2023-05-10T11:08:16;3.95;;;2.55;;
5555;SDS011;2801;50.972;7.856;2023-05-10T11:11:09;4.05;;;2.70;;
5555;SDS011;2801;50.972;7.856;2023-05-10T11:13:44;5.53;;;3.25;;
5555;SDS011;2801;50.972;7.856;2023-05-10T11:21:31;6.30;;;4.03;;
5555;SDS011;2801;50.972;7.856;2023-05-10T11:24:00;2.17;;;1.80;;
5555;SDS011;2801;50.972;7.856;2023-05-10T11:26:33;1.88;;;1.30;;
5555;SDS011;2801;50.972;7.856;2023-05-10T11:29:01;1.58;;;1.08;;
5555;SDS011;2801;50.972;7.856;2023-05-10T11:31:30;2.30;;;1.13;;
5555;SDS011;2801;50.972;7.856;2023-05-10T11:33:58;1.63;;;1.02;;
5555;SDS011;2801;50.972;7.856;2023-05-10T11:36:28;2.58;;;1.05;;
5555;SDS011;2801;50.972;7.856;2023-05-10T11:39:00;3.28;;;1.40;;
5555;SDS011;2801;50.972;7.856;2023-05-10T11:41:28;2.42;;;1.52;;
5555;SDS011;2801;50.972;7.856;2023-05-10T11:43:57;4.13;;;2.45;;
5555;SDS011;2801;50.972;7.856;2023-05-10T11:46:25;4.50;;;2.55;;
5555;SDS011;2801;50.972;7.856;2023-05-10T11:48:56;4.50;;;2.35;;
5555;SDS011;2801;50.972;7.856;2023-05-10T11:51:28;4.95;;;3.50;;
5555;SDS011;2801;50.972;7.856;2023-05-10T11:53:55;6.80;;;3.88;;
5555;SDS011;2801;50.972;7.856;2023-05-10T11:56:23;6.38;;;3.80;;
5555;SDS011;2801;50.972;7.856;2023-05-10T11:58:55;4.93;;;3.63;;
5555;SDS011;2801;50.972;7.856;2023-05-10T12:01:24;7.20;;;4.22;;
5555;SDS011;2801;50.972;7.856;2023-05-10T12:03:54;7.50;;;4.63;;
5555;SDS011;2801;50.972;7.856;2023-05-10T12:06:28;10.30;;;5.80;;
5555;SDS011;2801;50.972;7.856;2023-05-10T12:08:58;8.98;;;5.60;;
5555;SDS011;2801;50.972;7.856;2023-05-10T12:11:26;14.15;;;6.68;;
5555;SDS011;2801;50.972;7.856;2023-05-10T12:13:55;13.07;;;6.75;;
5555;SDS011;2801;50.972;7.856;2023-05-10T12:16:23;13.85;;;8.25;;
5555;SDS011;2801;50.972;7.856;2023-05-10T12:18:58;15.85;;;7.70;;
5555;SDS011;2801;50.972;7.856;2023-05-10T12:21:30;13.43;;;7.45;;
5555;SDS011;2801;50.972;7.856;2023-05-10T12:24:03;14.98;;;8.00;;
5555;SDS011;2801;50.972;7.856;2023-05-10T12:26:31;13.35;;;7.80;;
5555;SDS011;2801;50.972;7.856;2023-05-10T12:29:17;13.38;;;7.50;;
5555;SDS011;2801;50.972;7.856;2023-05-10T12:34:32;16.83;;;8.52;;
5555;SDS011;2801;50.972;7.856;2023-05-10T12:37:02;15.45;;;8.55;;
5555;SDS011;2801;50.972;7.856;2023-05-10T12:39:40;13.88;;;8.38;;
5555;SDS011;2801;50.972;7.856;2023-05-10T12:42:09;16.52;;;8.52;;
5555;SDS011;2801;50.972;7.856;2023-05-10T12:44:37;15.43;;;8.13;;
5555;SDS011;2801;50.972;7.856;2023-05-10T12:47:05;13.80;;;8.13;;
5555;SDS011;2801;50.972;7.856;2023-05-10T12:49:32;16.95;;;9.25;;
5555;SDS011;2801;50.972;7.856;2023-05-10T12:52:00;17.70;;;9.90;;
5555;SDS011;2801;50.972;7.856;2023-05-10T12:54:27;14.68;;;9.05;;
5555;SDS011;2801;50.972;7.856;2023-05-10T12:56:54;20.77;;;10.35;;
5555;SDS011;2801;50.972;7.856;2023-05-10T12:59:21;17.60;;;10.73;;
5555;SDS011;2801;50.972;7.856;2023-05-10T13:01:49;15.77;;;9.75;;
5555;SDS011;2801;50.972;7.856;2023-05-10T13:04:16;16.73;;;9.73;;
5555;SDS011;2801;50.972;7.856;2023-05-10T13:06:43;16.50;;;9.60;;
5555;SDS011;2801;50.972;7.856;2023-05-10T13:09:10;16.13;;;10.00;;
5555;SDS011;2801;50.972;7.856;2023-05-10T13:11:36;15.57;;;9.77;;
5555;SDS011;2801;50.972;7.856;2023-05-10T13:14:04;15.23;;;9.82;;
5555;SDS011;2801;50.972;7.856;2023-05-10T13:16:31;15.85;;;10.00;;
5555;SDS011;2801;50.972;7.856;2023-05-10T13:18:58;15.07;;;9.45;;
5555;SDS011;2801;50.972;7.856;2023-05-10T13:21:25;17.35;;;9.45;;
5555;SDS011;2801;50.972;7.856;2023-05-10T13:23:53;14.07;;;8.60;;
5555;SDS011;2801;50.972;7.856;2023-05-10T13:26:20;15.75;;;9.93;;
5555;SDS011;2801;50.972;7.856;2023-05-10T13:28:47;16.60;;;9.82;;
5555;SDS011;2801;50.972;7.856;2023-05-10T13:31:15;15.30;;;9.68;;
5555;SDS011;2801;50.972;7.856;2023-05-10T13:33:42;15.30;;;9.02;;
5555;SDS011;2801;50.972;7.856;2023-05-10T13:36:09;16.02;;;9.98;;
5555;SDS011;2801;50.972;7.856;2023-05-10T13:38:36;18.70;;;9.77;;
5555;SDS011;2801;50.972;7.856;2023-05-10T13:41:03;16.42;;;9.27;;
5555;SDS011;2801;50.972;7.856;2023-05-10T13:43:30;16.30;;;9.52;;
5555;SDS011;2801;50.972;7.856;2023-05-10T13:45:57;15.15;;;8.95;;
5555;SDS011;2801;50.972;7.856;2023-05-10T13:48:24;12.68;;;8.32;;
5555;SDS011;2801;50.972;7.856;2023-05-10T13:50:51;14.80;;;8.70;;
5555;SDS011;2801;50.972;7.856;2023-05-10T13:53:18;15.07;;;8.77;;
5555;SDS011;2801;50.972;7.856;2023-05-10T13:55:45;16.42;;;9.65;;
5555;SDS011;2801;50.972;7.856;2023-05-10T13:58:13;16.05;;;10.30;;
5555;SDS011;2801;50.972;7.856;2023-05-10T14:00:40;15.23;;;10.18;;
5555;SDS011;2801;50.972;7.856;2023-05-10T14:03:07;18.02;;;11.48;;
5555;SDS011;2801;50.972;7.856;2023-05-10T14:05:37;16.67;;;10.40;;
5555;SDS011;2801;50.972;7.856;2023-05-10T14:08:04;19.48;;;11.20;;
5555;SDS011;2801;50.972;7.856;2023-05-10T14:10:31;18.30;;;10.43;;
5555;SDS011;2801;50.972;7.856;2023-05-10T14:12:58;16.77;;;10.80;;
5555;SDS011;2801;50.972;7.856;2023-05-10T14:15:25;16.77;;;10.70;;
5555;SDS011;2801;50.972;7.856;2023-05-10T14:17:52;17.33;;;10.05;;
5555;SDS011;2801;50.972;7.856;2023-05-10T14:20:19;14.80;;;9.82;;
5555;SDS011;2801;50.972;7.856;2023-05-10T14:22:46;16.83;;;10.45;;
5555;SDS011;2801;50.972;7.856;2023-05-10T14:25:13;18.90;;;10.70;;
5555;SDS011;2801;50.972;7.856;2023-05-10T14:27:41;15.13;;;9.43;;
5555;SDS011;2801;50.972;7.856;2023-05-10T14:30:08;14.82;;;10.00;;
5555;SDS011;2801;50.972;7.856;2023-05-10T14:32:36;14.95;;;9.85;;
5555;SDS011;2801;50.972;7.856;2023-05-10T14:35:03;13.60;;;9.77;;
5555;SDS011;2801;50.972;7.856;2023-05-10T14:37:32;14.30;;;9.18;;
5555;SDS011;2801;50.972;7.856;2023-05-10T14:39:59;12.45;;;8.65;;
5555;SDS011;2801;50.972;7.856;2023-05-10T14:42:26;13.50;;;8.52;;
5555;SDS011;2801;50.972;7.856;2023-05-10T14:44:54;13.18;;;8.40;;
5555;SDS011;2801;50.972;7.856;2023-05-10T14:47:21;12.13;;;7.57;;
5555;SDS011;2801;50.972;7.856;2023-05-10T14:49:48;10.95;;;7.50;;
5555;SDS011;2801;50.972;7.856;2023-05-10T14:52:15;15.60;;;8.07;;
5555;SDS011;2801;50.972;7.856;2023-05-10T14:54:42;14.05;;;8.70;;
5555;SDS011;2801;50.972;7.856;2023-05-10T14:57:09;11.07;;;7.47;;
5555;SDS011;2801;50.972;7.856;2023-05-10T14:59:36;10.13;;;7.30;;
5555;SDS011;2801;50.972;7.856;2023-05-10T15:02:04;9.35;;;7.10;;
5555;SDS011;2801;50.972;7.856;2023-05-10T15:04:31;11.88;;;8.00;;
5555;SDS011;2801;50.972;7.856;2023-05-10T15:06:58;13.00;;;8.32;;
5555;SDS011;2801;50.972;7.856;2023-05-10T15:09:26;10.80;;;8.05;;
5555;SDS011;2801;50.972;7.856;2023-05-10T15:11:54;13.13;;;9.02;;
5555;SDS011;2801;50.972;7.856;2023-05-10T15:14:22;15.38;;;9.15;;
5555;SDS011;2801;50.972;7.856;2023-05-10T15:16:49;15.55;;;9.10;;
5555;SDS011;2801;50.972;7.856;2023-05-10T15:19:16;14.88;;;9.85;;
5555;SDS011;2801;50.972;7.856;2023-05-10T15:21:43;17.17;;;8.88;;
5555;SDS011;2801;50.972;7.856;2023-05-10T15:24:10;13.70;;;8.77;;
5555;SDS011;2801;50.972;7.856;2023-05-10T15:26:37;14.23;;;9.70;;
5555;SDS011;2801;50.972;7.856;2023-05-10T15:29:04;14.48;;;9.18;;
5555;SDS011;2801;50.972;7.856;2023-05-10T15:31:31;12.63;;;9.10;;
5555;SDS011;2801;50.972;7.856;2023-05-10T15:34:01;15.45;;;9.10;;
5555;SDS011;2801;50.972;7.856;2023-05-10T15:36:28;15.60;;;8.60;;
5555;SDS011;2801;50.972;7.856;2023-05-10T15:38:55;16.63;;;10.00;;
5555;SDS011;2801;50.972;7.856;2023-05-10T15:41:22;14.68;;;9.57;;
5555;SDS011;2801;50.972;7.856;2023-05-10T15:43:49;14.68;;;9.48;;
5555;SDS011;2801;50.972;7.856;2023-05-10T15:46:16;15.40;;;9.55;;
5555;SDS011;2801;50.972;7.856;2023-05-10T15:48:43;18.10;;;9.95;;
5555;SDS011;2801;50.972;7.856;2023-05-10T15:51:10;19.23;;;10.90;;
5555;SDS011;2801;50.972;7.856;2023-05-10T15:53:37;15.35;;;9.63;;
5555;SDS011;2801;50.972;7.856;2023-05-10T15:56:18;16.75;;;9.90;;